Time;durP1;ratioP1;P1;durP2;ratioP2;P2;SDS_P1;SDS_P2;PMS_P1;PMS_P2;Temp;Humidity;BMP_temperature;BMP_pressure;BME280_temperature;BME280_humidity;BME280_pressure;Samples;Min_cycle;Max_cycle;Signal;HPM_P1;HPM_P2
2022/03/30 00:00:56;;;;;;;97.57;43.63;;;4.70;99.90;;;;;;10447580;28;20036;-81
2022/03/30 00:05:57;;;;;;;102.07;46.77;;;4.70;99.90;;;;;;10448598;28;20037;-81
2022/03/30 00:10:58;;;;;;;124.37;55.43;;;4.60;99.90;;;;;;10448096;28;20095;-82
2022/03/30 00:15:59;;;;;;;117.90;55.77;;;4.70;99.90;;;;;;10448223;28;20052;-82
2022/03/30 00:21:00;;;;;;;111.50;53.00;;;4.60;99.90;;;;;;10451231;28;20025;-81
2022/03/30 00:26:00;;;;;;;117.17;53.40;;;4.60;99.90;;;;;;10455724;28;20389;-81
2022/03/30 00:31:01;;;;;;;113.27;51.23;;;4.60;99.90;;;;;;10455310;28;20388;-82
2022/03/30 00:36:01;;;;;;;118.97;54.17;;;4.60;99.90;;;;;;10454966;28;20025;-83
2022/03/30 00:41:02;;;;;;;114.80;51.87;;;4.60;99.90;;;;;;10456002;28;20028;-82
2022/03/30 00:46:03;;;;;;;121.00;52.87;;;4.50;99.90;;;;;;10436857;28;20040;-81
2022/03/30 00:51:04;;;;;;;114.53;52.73;;;4.60;99.90;;;;;;10454440;28;20114;-83
2022/03/30 00:56:06;;;;;;;120.70;53.30;;;4.50;99.90;;;;;;10455008;28;20029;-82
2022/03/30 01:01:07;;;;;;;119.03;55.20;;;4.50;99.90;;;;;;10453608;28;20028;-84
2022/03/30 01:06:08;;;;;;;118.27;53.87;;;4.60;99.90;;;;;;10455428;28;20428;-84
2022/03/30 01:11:12;;;;;;;117.20;53.80;;;4.60;99.90;;;;;;10453799;28;20037;-83
2022/03/30 01:16:13;;;;;;;127.40;57.27;;;4.60;99.90;;;;;;10453670;28;20723;-82
2022/03/30 01:21:15;;;;;;;131.90;60.17;;;4.60;99.90;;;;;;10436111;28;20021;-82
2022/03/30 01:26:15;;;;;;;117.73;53.27;;;4.50;99.90;;;;;;10451982;28;20083;-83
2022/03/30 01:36:35;;;;;;;117.60;52.30;;;4.30;99.90;;;;;;10451235;28;20048;-82
2022/03/30 01:41:36;;;;;;;116.17;49.03;;;4.30;99.90;;;;;;10452916;28;20108;-82
2022/03/30 01:46:38;;;;;;;113.77;48.23;;;4.20;99.90;;;;;;10452983;28;20460;-84
2022/03/30 01:51:38;;;;;;;109.00;45.33;;;4.10;99.90;;;;;;10453272;28;20044;-82
2022/03/30 01:56:39;;;;;;;102.43;45.43;;;4.00;99.90;;;;;;10451172;28;20140;-82
2022/03/30 02:01:41;;;;;;;112.50;48.63;;;4.00;99.90;;;;;;10451703;28;20020;-82
2022/03/30 02:06:41;;;;;;;102.07;46.97;;;4.00;99.90;;;;;;10451985;28;20029;-82
2022/03/30 02:11:42;;;;;;;121.20;52.60;;;4.00;99.90;;;;;;10451318;28;20029;-82
2022/03/30 02:16:43;;;;;;;113.23;49.97;;;3.90;99.90;;;;;;10451237;28;20358;-84
2022/03/30 02:21:43;;;;;;;124.63;56.03;;;3.90;99.90;;;;;;10451999;28;20482;-81
2022/03/30 02:26:45;;;;;;;118.40;54.17;;;3.90;99.90;;;;;;10433626;28;20056;-82
2022/03/30 02:31:46;;;;;;;122.20;53.20;;;3.90;99.90;;;;;;10450982;28;20689;-83
2022/03/30 02:36:46;;;;;;;119.03;52.50;;;3.80;99.90;;;;;;10450440;28;20064;-83
2022/03/30 02:41:47;;;;;;;122.17;52.10;;;3.90;99.90;;;;;;10432486;28;20480;-82
2022/03/30 02:46:48;;;;;;;116.23;51.90;;;3.80;99.90;;;;;;10450021;28;20021;-82
2022/03/30 02:51:48;;;;;;;122.90;51.93;;;3.80;99.90;;;;;;10449132;28;20049;-82
2022/03/30 02:56:49;;;;;;;129.87;55.27;;;3.80;99.90;;;;;;10450571;28;20032;-84
2022/03/30 03:01:50;;;;;;;125.27;53.30;;;3.70;99.90;;;;;;10450851;28;20420;-86
2022/03/30 03:06:51;;;;;;;132.13;56.10;;;3.70;99.90;;;;;;10482168;28;20032;-82
2022/03/30 03:11:52;;;;;;;134.97;55.50;;;3.60;99.90;;;;;;10486920;28;20753;-85
2022/03/30 03:16:52;;;;;;;130.33;59.43;;;3.70;99.90;;;;;;10447871;28;20060;-83
2022/03/30 03:21:53;;;;;;;132.97;56.77;;;3.60;99.90;;;;;;10449627;28;20480;-82
2022/03/30 03:26:54;;;;;;;119.10;53.57;;;3.60;99.90;;;;;;10448990;28;20055;-82
2022/03/30 03:31:55;;;;;;;132.83;57.17;;;3.60;99.90;;;;;;10448891;28;20056;-86
2022/03/30 03:36:56;;;;;;;134.43;56.23;;;3.70;99.90;;;;;;10450930;28;20037;-84
2022/03/30 03:41:57;;;;;;;139.60;61.07;;;3.70;99.90;;;;;;10435413;28;20041;-86
2022/03/30 03:46:57;;;;;;;141.40;61.93;;;3.60;99.90;;;;;;10422424;28;20087;-83
2022/03/30 03:51:58;;;;;;;140.90;62.60;;;3.60;99.90;;;;;;10439291;28;20044;-82
2022/03/30 03:56:59;;;;;;;134.53;58.33;;;3.60;99.90;;;;;;10437420;28;20040;-84
2022/03/30 04:02:00;;;;;;;129.43;57.83;;;3.60;99.90;;;;;;10456255;28;20025;-83
2022/03/30 04:07:00;;;;;;;137.70;61.13;;;3.70;99.90;;;;;;10438595;28;20033;-85
2022/03/30 04:12:01;;;;;;;128.67;57.63;;;3.70;99.90;;;;;;10438383;28;20079;-84
2022/03/30 04:17:02;;;;;;;147.53;61.73;;;3.80;99.90;;;;;;10444676;28;20420;-84
2022/03/30 04:22:03;;;;;;;132.90;61.23;;;3.70;99.90;;;;;;10446233;28;20035;-85
2022/03/30 04:27:04;;;;;;;127.33;56.60;;;3.70;99.90;;;;;;10453197;28;20059;-84
2022/03/30 04:32:05;;;;;;;133.00;59.00;;;3.70;99.90;;;;;;10436959;28;20043;-85
2022/03/30 04:37:05;;;;;;;133.47;63.63;;;3.60;99.90;;;;;;10455700;28;20531;-86
2022/03/30 04:42:06;;;;;;;141.90;62.63;;;3.70;99.90;;;;;;10434518;28;20040;-84
2022/03/30 04:47:07;;;;;;;135.00;65.87;;;3.70;99.90;;;;;;10426557;28;20448;-85
2022/03/30 04:52:09;;;;;;;138.73;66.40;;;3.80;99.90;;;;;;10435863;28;20037;-83
2022/03/30 04:57:10;;;;;;;148.70;69.37;;;3.80;99.90;;;;;;10422852;28;20025;-83
2022/03/30 05:02:10;;;;;;;177.67;88.63;;;3.80;99.90;;;;;;10446655;28;20431;-83
2022/03/30 05:07:12;;;;;;;237.50;122.83;;;3.90;99.90;;;;;;10412568;28;20033;-84
2022/03/30 05:12:12;;;;;;;251.27;131.43;;;4.00;99.90;;;;;;10413692;28;20069;-85
2022/03/30 05:17:13;;;;;;;257.93;139.53;;;4.10;99.90;;;;;;10413099;28;20120;-84
2022/03/30 05:22:14;;;;;;;263.57;144.57;;;4.10;99.90;;;;;;10395365;28;20076;-83
2022/03/30 05:27:14;;;;;;;212.13;110.93;;;4.20;99.90;;;;;;10413535;28;20055;-83
2022/03/30 05:32:15;;;;;;;211.07;111.40;;;4.30;99.90;;;;;;10412880;28;20033;-83
2022/03/30 05:37:16;;;;;;;200.00;102.20;;;4.40;99.90;;;;;;10395013;28;20116;-84
2022/03/30 05:42:16;;;;;;;188.03;99.67;;;4.60;99.90;;;;;;10412207;28;20041;-83
2022/03/30 05:47:17;;;;;;;167.77;88.10;;;4.70;99.90;;;;;;10413083;28;20581;-83
2022/03/30 05:52:18;;;;;;;174.13;88.67;;;5.00;99.90;;;;;;10412271;28;20124;-85
2022/03/30 05:57:21;;;;;;;168.53;86.27;;;5.20;99.90;;;;;;10411673;28;20025;-85
2022/03/30 06:02:21;;;;;;;159.90;83.50;;;5.40;99.90;;;;;;10411643;28;20021;-83
2022/03/30 06:07:22;;;;;;;167.03;84.03;;;5.70;99.90;;;;;;10411358;28;20037;-83
2022/03/30 06:12:24;;;;;;;162.33;83.27;;;5.80;99.90;;;;;;10411972;28;20037;-84
2022/03/30 06:17:27;;;;;;;175.27;91.60;;;6.00;99.90;;;;;;10391932;28;20116;-84
2022/03/30 06:22:29;;;;;;;174.67;88.60;;;6.10;99.90;;;;;;10411797;28;20652;-83
2022/03/30 06:27:30;;;;;;;145.27;78.23;;;6.30;99.90;;;;;;10411251;28;20052;-84
2022/03/30 06:32:31;;;;;;;155.17;81.17;;;6.30;99.90;;;;;;10409983;28;20037;-84
2022/03/30 06:37:33;;;;;;;162.67;80.80;;;6.40;99.90;;;;;;10410245;28;20116;-84
2022/03/30 06:42:34;;;;;;;154.33;82.00;;;6.50;99.90;;;;;;10392210;28;20026;-84
2022/03/30 06:47:35;;;;;;;161.50;87.13;;;6.70;99.90;;;;;;10409880;28;20033;-83
2022/03/30 06:52:36;;;;;;;158.60;86.77;;;6.80;99.90;;;;;;10391843;28;20037;-84
2022/03/30 06:57:36;;;;;;;153.17;79.50;;;7.00;99.90;;;;;;10409250;28;20044;-86
2022/03/30 07:02:37;;;;;;;117.50;66.00;;;7.30;99.90;;;;;;10409847;28;20060;-84
2022/03/30 07:12:57;;;;;;;126.67;65.50;;;7.70;99.90;;;;;;10408954;28;20127;-86
2022/03/30 07:17:59;;;;;;;112.97;56.73;;;8.00;99.90;;;;;;10408644;28;20108;-83
2022/03/30 07:23:01;;;;;;;106.63;58.00;;;8.30;99.90;;;;;;10408539;28;20025;-83
2022/03/30 07:28:03;;;;;;;100.37;54.00;;;8.60;99.90;;;;;;10408247;28;20084;-83
2022/03/30 07:33:04;;;;;;;101.23;53.83;;;8.90;99.90;;;;;;10407948;28;20037;-83
2022/03/30 07:38:05;;;;;;;89.03;47.77;;;9.20;99.90;;;;;;10408485;28;20073;-83
2022/03/30 07:43:07;;;;;;;76.57;43.17;;;9.40;99.90;;;;;;10408676;28;20032;-84
2022/03/30 07:48:08;;;;;;;83.03;44.63;;;9.60;99.90;;;;;;10408849;28;20033;-83
2022/03/30 07:53:09;;;;;;;67.45;36.33;;;9.80;99.90;;;;;;10390200;28;20042;-85
2022/03/30 07:58:10;;;;;;;40.47;20.05;;;9.90;99.90;;;;;;10407771;28;20029;-84
2022/03/30 08:03:10;;;;;;;44.13;24.17;;;10.10;99.90;;;;;;10407908;28;20025;-84
2022/03/30 08:08:11;;;;;;;39.92;21.83;;;10.30;99.90;;;;;;10408626;28;20033;-84
2022/03/30 08:13:12;;;;;;;35.10;20.33;;;10.50;99.90;;;;;;10407771;28;20121;-83
2022/03/30 08:18:13;;;;;;;29.55;17.95;;;10.50;99.90;;;;;;10407591;28;20036;-85
2022/03/30 08:23:13;;;;;;;33.47;18.70;;;10.50;99.90;;;;;;10407552;28;20029;-86
2022/03/30 08:28:14;;;;;;;34.53;19.05;;;10.30;99.90;;;;;;10408135;28;20053;-83
2022/03/30 08:33:16;;;;;;;31.52;16.98;;;10.10;99.90;;;;;;10407010;28;20037;-84
2022/03/30 08:38:17;;;;;;;29.75;16.70;;;10.30;99.90;;;;;;10407440;28;20057;-84
2022/03/30 08:43:18;;;;;;;36.08;18.63;;;10.50;99.90;;;;;;10411517;28;20450;-83
2022/03/30 08:48:18;;;;;;;41.83;22.17;;;10.40;99.90;;;;;;10397075;28;20033;-83
2022/03/30 08:53:19;;;;;;;35.35;19.83;;;10.80;99.90;;;;;;10414147;28;20120;-82
2022/03/30 08:58:20;;;;;;;43.30;22.35;;;11.00;99.90;;;;;;10413867;28;20734;-83
2022/03/30 09:03:20;;;;;;;37.85;20.25;;;11.50;99.90;;;;;;10414118;28;20026;-83
2022/03/30 09:08:25;;;;;;;35.08;19.40;;;11.70;99.90;;;;;;10413712;28;20029;-85
2022/03/30 09:13:26;;;;;;;33.85;17.83;;;11.80;99.90;;;;;;10413590;28;20037;-83
2022/03/30 09:18:26;;;;;;;28.45;15.48;;;11.80;99.90;;;;;;10413795;28;20033;-83
2022/03/30 09:23:29;;;;;;;29.15;16.77;;;11.80;99.90;;;;;;10413064;28;20022;-83
2022/03/30 09:28:30;;;;;;;41.75;20.13;;;11.60;99.90;;;;;;10394936;28;20493;-82
2022/03/30 09:33:31;;;;;;;29.55;17.35;;;11.70;99.90;;;;;;10411749;28;20088;-82
2022/03/30 09:38:37;;;;;;;32.92;18.75;;;11.90;99.90;;;;;;10412672;28;20049;-84
2022/03/30 09:43:41;;;;;;;34.20;19.23;;;12.50;99.90;;;;;;10411931;28;20049;-82
2022/03/30 09:48:53;;;;;;;36.95;22.30;;;13.10;99.90;;;;;;10412983;28;20544;-85
2022/03/30 09:53:53;;;;;;;41.40;23.77;;;13.60;99.90;;;;;;10394367;28;20658;-82
2022/03/30 09:59:01;;;;;;;36.42;22.35;;;13.80;99.90;;;;;;10411664;28;20030;-83
2022/03/30 10:04:08;;;;;;;32.90;19.15;;;13.70;99.90;;;;;;10411754;28;20036;-82
2022/03/30 10:09:09;;;;;;;32.75;19.40;;;13.70;99.90;;;;;;10411321;28;20060;-82
2022/03/30 10:14:11;;;;;;;34.55;20.75;;;13.70;99.90;;;;;;10411212;28;20069;-83
2022/03/30 10:19:11;;;;;;;31.83;18.35;;;13.80;99.90;;;;;;10411927;28;20032;-83
2022/03/30 10:24:35;;;;;;;32.90;20.92;;;13.90;99.90;;;;;;10410674;28;20053;-83
2022/03/30 10:29:37;;;;;;;34.67;20.00;;;14.10;99.90;;;;;;10411548;28;20445;-82
2022/03/30 10:35:02;;;;;;;41.42;23.30;;;14.20;99.90;;;;;;10410984;28;20041;-83
2022/03/30 10:40:03;;;;;;;42.47;24.05;;;14.30;99.90;;;;;;10403404;28;20041;-83
2022/03/30 10:45:05;;;;;;;37.90;22.85;;;14.30;99.90;;;;;;10412282;28;20029;-82
2022/03/30 10:50:08;;;;;;;35.90;22.63;;;14.20;99.90;;;;;;10451080;28;20025;-83
2022/03/30 10:55:12;;;;;;;39.03;21.95;;;13.50;99.90;;;;;;10432657;28;20116;-81
2022/03/30 11:00:17;;;;;;;38.40;22.23;;;13.50;99.90;;;;;;10450547;28;20033;-82
2022/03/30 11:05:28;;;;;;;40.73;23.70;;;13.70;99.90;;;;;;10432185;28;20029;-82
2022/03/30 11:10:45;;;;;;;42.47;22.90;;;13.70;99.90;;;;;;10432868;28;20029;-82
2022/03/30 11:15:59;;;;;;;40.08;23.83;;;13.80;99.90;;;;;;10415552;28;20496;-85
2022/03/30 11:21:09;;;;;;;35.65;21.67;;;13.90;99.90;;;;;;10450122;28;20024;-82
2022/03/30 11:26:09;;;;;;;38.55;22.25;;;13.60;99.90;;;;;;10449989;28;20061;-82
2022/03/30 11:31:23;;;;;;;38.47;22.20;;;13.80;97.00;;;;;;10449992;28;20535;-82
2022/03/30 11:36:24;;;;;;;36.42;21.70;;;13.70;99.90;;;;;;10450478;28;20104;-82
2022/03/30 11:41:25;;;;;;;43.15;23.63;;;13.50;94.20;;;;;;10450489;28;20025;-83
2022/03/30 11:46:28;;;;;;;38.47;24.13;;;13.50;92.80;;;;;;10450238;28;20037;-83
2022/03/30 11:51:29;;;;;;;34.67;19.77;;;13.50;92.40;;;;;;10449090;28;20072;-82
2022/03/30 11:56:30;;;;;;;39.42;22.05;;;13.30;91.40;;;;;;10449323;28;20561;-82
2022/03/30 12:01:35;;;;;;;36.15;20.98;;;12.90;88.70;;;;;;10449373;28;20033;-84
2022/03/30 12:06:44;;;;;;;34.05;20.17;;;12.60;87.30;;;;;;10449157;28;20140;-83
2022/03/30 12:11:46;;;;;;;34.35;19.10;;;12.40;87.90;;;;;;10448716;28;20090;-81
2022/03/30 12:16:46;;;;;;;34.70;18.88;;;12.30;87.00;;;;;;10451441;28;20036;-83
2022/03/30 12:21:47;;;;;;;33.80;19.98;;;12.30;84.70;;;;;;10456770;28;20388;-83
2022/03/30 12:26:52;;;;;;;36.15;20.33;;;12.40;83.00;;;;;;10456678;28;20805;-82
2022/03/30 12:31:57;;;;;;;39.90;22.73;;;12.60;81.80;;;;;;10455806;28;20090;-82
2022/03/30 12:37:01;;;;;;;40.00;22.27;;;12.50;82.40;;;;;;10454861;28;20029;-83
2022/03/30 12:42:22;;;;;;;44.67;25.60;;;12.50;81.50;;;;;;10456006;28;20056;-83
2022/03/30 12:47:30;;;;;;;34.13;19.02;;;12.50;80.60;;;;;;10433611;28;20092;-86
2022/03/30 12:52:37;;;;;;;38.67;20.20;;;12.50;80.70;;;;;;10450446;28;20131;-84
2022/03/30 12:57:54;;;;;;;38.60;20.42;;;12.40;79.30;;;;;;10455288;28;20063;-83
2022/03/30 13:03:31;;;;;;;36.70;20.65;;;12.40;77.50;;;;;;10446370;28;20037;-82
2022/03/30 13:08:32;;;;;;;36.05;20.48;;;12.50;76.60;;;;;;10451440;28;20037;-82
2022/03/30 13:13:36;;;;;;;36.60;19.17;;;12.60;77.60;;;;;;10452544;28;20599;-82
2022/03/30 13:18:37;;;;;;;34.70;19.15;;;12.90;78.00;;;;;;10454276;28;20413;-81
2022/03/30 13:23:48;;;;;;;34.17;20.60;;;13.10;75.30;;;;;;10454451;28;20037;-85
2022/03/30 13:28:49;;;;;;;33.15;19.40;;;13.10;74.90;;;;;;10435285;28;20401;-81
2022/03/30 13:33:52;;;;;;;34.63;21.00;;;13.00;74.90;;;;;;10453969;28;20041;-84
2022/03/30 13:38:55;;;;;;;40.97;23.75;;;13.00;74.80;;;;;;10454044;28;20037;-82
2022/03/30 13:43:56;;;;;;;41.25;22.60;;;13.00;75.10;;;;;;10453018;28;20021;-82
2022/03/30 13:48:57;;;;;;;71.05;35.72;;;12.80;73.60;;;;;;10453803;28;20020;-82
2022/03/30 13:53:58;;;;;;;84.38;42.03;;;12.60;73.50;;;;;;10430477;28;20047;-82
2022/03/30 13:58:59;;;;;;;36.08;20.90;;;12.50;73.00;;;;;;10454639;28;20063;-83
2022/03/30 14:03:59;;;;;;;38.72;20.60;;;12.40;75.40;;;;;;10449303;28;20098;-82
2022/03/30 14:09:00;;;;;;;37.25;20.65;;;12.30;74.40;;;;;;10417319;28;20029;-81
2022/03/30 14:14:01;;;;;;;42.03;22.30;;;12.20;75.10;;;;;;10450479;28;20562;-81
2022/03/30 14:19:01;;;;;;;37.35;21.77;;;12.20;73.30;;;;;;10450502;28;20041;-82
2022/03/30 14:24:02;;;;;;;45.40;31.48;;;12.10;73.70;;;;;;10451124;28;20032;-81
2022/03/30 14:29:03;;;;;;;39.10;21.70;;;12.00;73.80;;;;;;10426844;28;20376;-82
2022/03/30 14:34:04;;;;;;;37.55;20.55;;;11.90;74.30;;;;;;10451831;28;20033;-84
2022/03/30 14:39:05;;;;;;;41.00;23.42;;;11.60;76.30;;;;;;10450567;28;20025;-84
2022/03/30 14:44:06;;;;;;;56.33;30.27;;;11.40;77.50;;;;;;10451020;28;20025;-81
2022/03/30 14:49:06;;;;;;;33.45;19.80;;;11.00;79.50;;;;;;10451169;28;20086;-82
2022/03/30 14:54:07;;;;;;;40.00;21.77;;;10.60;82.50;;;;;;10450531;28;20083;-82
2022/03/30 14:59:12;;;;;;;37.80;21.08;;;10.40;85.30;;;;;;10442404;28;20071;-82
2022/03/30 15:04:14;;;;;;;354.95;169.45;;;10.30;87.70;;;;;;10430131;28;20033;-81
2022/03/30 15:09:15;;;;;;;213.90;104.25;;;10.20;90.20;;;;;;10430572;28;20028;-85
2022/03/30 15:14:16;;;;;;;69.05;33.22;;;10.20;90.30;;;;;;10450222;28;20047;-81
2022/03/30 15:19:17;;;;;;;73.43;40.88;;;10.30;90.30;;;;;;10437370;28;20083;-80
2022/03/30 15:24:18;;;;;;;55.47;29.33;;;10.20;90.10;;;;;;10436477;28;20518;-80
2022/03/30 15:29:19;;;;;;;289.10;161.43;;;10.20;91.50;;;;;;10424795;28;20030;-81
2022/03/30 15:34:20;;;;;;;129.77;73.97;;;10.00;91.70;;;;;;10449772;28;20040;-82
2022/03/30 15:39:22;;;;;;;62.30;35.63;;;9.90;93.00;;;;;;10448733;28;20098;-82
2022/03/30 15:44:24;;;;;;;44.90;24.70;;;9.80;94.00;;;;;;10448386;28;20096;-81
2022/03/30 15:49:24;;;;;;;45.30;25.23;;;9.60;94.50;;;;;;10450259;28;20029;-84
2022/03/30 15:54:25;;;;;;;50.93;27.60;;;9.40;96.60;;;;;;10457659;28;20041;-83
2022/03/30 15:59:26;;;;;;;51.27;28.27;;;9.30;99.10;;;;;;10457405;28;20102;-82
2022/03/30 16:04:27;;;;;;;58.87;30.23;;;9.20;99.90;;;;;;10457366;28;20066;-83
2022/03/30 16:09:35;;;;;;;58.50;31.30;;;9.10;99.90;;;;;;10456989;28;20535;-82
2022/03/30 16:14:36;;;;;;;60.97;32.07;;;9.00;99.90;;;;;;10457507;28;20044;-84
2022/03/30 16:19:39;;;;;;;64.57;34.37;;;8.80;99.90;;;;;;10456321;28;20029;-82
2022/03/30 16:24:40;;;;;;;63.77;35.43;;;8.60;99.90;;;;;;10470964;28;20055;-82
2022/03/30 16:29:41;;;;;;;64.30;32.47;;;8.40;99.90;;;;;;10427989;28;20032;-83
2022/03/30 16:34:42;;;;;;;61.33;34.23;;;8.20;99.90;;;;;;10432153;28;20072;-84
2022/03/30 16:39:43;;;;;;;75.50;37.57;;;8.10;99.90;;;;;;10455737;28;20122;-82
2022/03/30 16:44:45;;;;;;;78.83;38.63;;;7.90;99.90;;;;;;10455767;28;20057;-86
2022/03/30 16:49:46;;;;;;;84.70;41.83;;;7.70;99.90;;;;;;10424824;28;20108;-82
2022/03/30 16:54:47;;;;;;;100.20;46.63;;;7.70;99.90;;;;;;10455035;28;20551;-82
2022/03/30 16:59:48;;;;;;;110.13;54.90;;;7.60;99.90;;;;;;10454099;28;20029;-83
2022/03/30 17:04:48;;;;;;;114.57;53.67;;;7.60;99.90;;;;;;10438837;28;20033;-81
2022/03/30 17:09:58;;;;;;;124.03;56.63;;;7.50;99.90;;;;;;10455388;28;20020;-83
2022/03/30 17:14:59;;;;;;;190.67;78.20;;;7.40;99.90;;;;;;10449996;28;20509;-82
2022/03/30 17:20:00;;;;;;;140.50;67.50;;;7.40;99.90;;;;;;10426595;28;20021;-81
2022/03/30 17:25:01;;;;;;;139.47;65.83;;;7.40;99.90;;;;;;10436158;28;20040;-82
2022/03/30 17:30:03;;;;;;;136.17;63.37;;;7.30;99.90;;;;;;10449040;28;20033;-81
2022/03/30 17:35:05;;;;;;;116.53;53.67;;;7.40;99.90;;;;;;10422741;28;20075;-85
2022/03/30 17:40:07;;;;;;;118.37;56.50;;;7.30;99.90;;;;;;10452800;28;20025;-81
2022/03/30 17:45:08;;;;;;;115.07;54.73;;;7.20;99.90;;;;;;10431326;28;20116;-84
2022/03/30 17:55:33;;;;;;;148.00;65.97;;;7.00;99.90;;;;;;10451555;28;20049;-84
2022/03/30 18:00:34;;;;;;;144.07;65.63;;;6.90;99.90;;;;;;10451334;28;20041;-82
2022/03/30 18:05:35;;;;;;;132.63;59.07;;;6.80;99.90;;;;;;10432357;28;20774;-86
2022/03/30 18:10:40;;;;;;;122.87;56.37;;;6.80;99.90;;;;;;10447337;28;20132;-84
2022/03/30 18:15:41;;;;;;;143.10;61.93;;;6.60;99.90;;;;;;10411222;28;20477;-86
2022/03/30 18:20:46;;;;;;;146.70;63.87;;;6.50;99.90;;;;;;10437899;28;20065;-81
2022/03/30 18:25:47;;;;;;;160.30;65.60;;;6.40;99.90;;;;;;10430389;28;20095;-83
2022/03/30 18:30:52;;;;;;;159.07;66.07;;;6.40;99.90;;;;;;10451828;28;20063;-81
2022/03/30 18:35:53;;;;;;;157.55;64.57;;;6.30;99.90;;;;;;10451187;28;20505;-83
2022/03/30 18:40:54;;;;;;;156.00;70.43;;;6.30;99.90;;;;;;10467823;22;20088;-82
2022/03/30 18:45:55;;;;;;;136.60;65.27;;;6.20;99.90;;;;;;10431586;28;20056;-82
2022/03/30 18:50:55;;;;;;;161.80;66.87;;;6.20;99.90;;;;;;10401021;28;20059;-82
2022/03/30 18:55:56;;;;;;;156.40;65.50;;;6.10;99.90;;;;;;10450613;28;20775;-82
2022/03/30 19:00:57;;;;;;;153.83;65.60;;;6.10;99.90;;;;;;10438587;28;20033;-81
2022/03/30 19:06:01;;;;;;;156.77;61.70;;;6.20;99.90;;;;;;10415585;28;20033;-80
2022/03/30 19:11:03;;;;;;;160.23;62.93;;;6.20;99.90;;;;;;10442229;28;20034;-83
2022/03/30 19:16:05;;;;;;;160.63;61.97;;;6.10;99.90;;;;;;10424719;28;20033;-84
2022/03/30 19:21:06;;;;;;;140.17;58.63;;;6.10;99.90;;;;;;10447409;28;20029;-82
2022/03/30 19:26:06;;;;;;;139.20;54.30;;;6.10;99.90;;;;;;10449522;28;20472;-82
2022/03/30 19:31:07;;;;;;;127.87;51.00;;;6.00;99.90;;;;;;10499452;23;20061;-84
2022/03/30 19:36:08;;;;;;;133.83;54.73;;;5.90;99.90;;;;;;10488772;28;20567;-84
2022/03/30 19:41:14;;;;;;;138.97;51.50;;;5.90;99.90;;;;;;10487450;28;20028;-82
2022/03/30 19:46:15;;;;;;;130.32;52.65;;;5.80;99.90;;;;;;10460802;28;20436;-83
2022/03/30 19:51:17;;;;;;;127.30;49.47;;;5.80;99.90;;;;;;10488385;28;20021;-83
2022/03/30 19:56:19;;;;;;;125.20;51.97;;;5.80;99.90;;;;;;10466409;28;20039;-81
2022/03/30 20:01:20;;;;;;;121.00;48.37;;;5.70;99.90;;;;;;10471862;28;20033;-85
2022/03/30 20:06:21;;;;;;;138.07;52.20;;;5.70;99.90;;;;;;10475233;28;20111;-84
2022/03/30 20:11:22;;;;;;;133.63;53.40;;;5.70;99.90;;;;;;10491026;28;20081;-83
2022/03/30 20:16:23;;;;;;;147.50;59.30;;;5.70;99.90;;;;;;10478979;28;20041;-83
2022/03/30 20:21:23;;;;;;;136.07;54.13;;;5.70;99.90;;;;;;10450428;28;20036;-82
2022/03/30 20:26:25;;;;;;;130.90;55.03;;;5.70;99.90;;;;;;10457193;28;20028;-82
2022/03/30 20:31:26;;;;;;;148.13;59.00;;;5.60;99.90;;;;;;10487455;28;20055;-86
2022/03/30 20:36:27;;;;;;;155.70;59.30;;;5.60;99.90;;;;;;10465526;28;20029;-83
2022/03/30 20:41:27;;;;;;;139.43;54.67;;;5.60;99.90;;;;;;10456457;28;20106;-84
2022/03/30 20:46:28;;;;;;;135.27;52.13;;;5.60;99.90;;;;;;10480004;28;20032;-83
2022/03/30 20:51:29;;;;;;;143.20;57.33;;;5.50;99.90;;;;;;10474448;28;20037;-87
2022/03/30 20:56:30;;;;;;;146.87;54.60;;;5.50;99.90;;;;;;10456322;28;20473;-83
2022/03/30 21:01:30;;;;;;;156.50;58.43;;;5.50;99.90;;;;;;10471235;28;20029;-84
2022/03/30 21:06:31;;;;;;;139.13;53.03;;;5.50;99.90;;;;;;10496509;28;20027;-84
2022/03/30 21:11:32;;;;;;;125.83;51.47;;;5.40;99.90;;;;;;10495012;28;20036;-84
2022/03/30 21:16:32;;;;;;;143.20;55.73;;;5.30;99.90;;;;;;10484260;28;20062;-85
2022/03/30 21:21:34;;;;;;;150.83;54.83;;;5.30;99.90;;;;;;10484604;28;20029;-83
2022/03/30 21:26:35;;;;;;;131.93;52.07;;;5.30;99.90;;;;;;10490249;28;20032;-86
2022/03/30 21:31:36;;;;;;;165.50;60.87;;;5.30;99.90;;;;;;10493310;28;20455;-83
2022/03/30 21:36:37;;;;;;;147.50;54.73;;;5.20;99.90;;;;;;10492094;28;20395;-84
2022/03/30 21:41:38;;;;;;;156.93;54.67;;;5.30;99.90;;;;;;10493034;28;20040;-84
2022/03/30 21:46:40;;;;;;;156.33;54.97;;;5.30;99.90;;;;;;10493733;28;20086;-84
2022/03/30 21:51:40;;;;;;;134.03;50.17;;;5.40;99.90;;;;;;10492535;28;20041;-84
2022/03/30 21:56:41;;;;;;;116.90;48.03;;;5.20;99.90;;;;;;10461744;28;20036;-83
2022/03/30 22:01:42;;;;;;;120.37;48.17;;;5.10;99.90;;;;;;10453903;28;20082;-84
2022/03/30 22:06:43;;;;;;;125.67;49.50;;;5.00;99.90;;;;;;10470872;28;20029;-83
2022/03/30 22:11:44;;;;;;;135.57;51.10;;;4.80;99.90;;;;;;10452487;28;20041;-83
2022/03/30 22:16:45;;;;;;;120.03;47.50;;;4.60;99.90;;;;;;10466334;28;20036;-85
2022/03/30 22:21:46;;;;;;;109.77;43.10;;;4.50;99.90;;;;;;10468058;28;20123;-83
2022/03/30 22:26:47;;;;;;;88.50;37.67;;;4.50;99.90;;;;;;10492702;28;20037;-85
2022/03/30 22:37:08;;;;;;;87.43;37.03;;;4.10;99.90;;;;;;10492948;28;20044;-83
2022/03/30 22:42:09;;;;;;;81.63;35.53;;;4.00;99.90;;;;;;10464545;28;20020;-82
2022/03/30 22:47:11;;;;;;;78.70;33.43;;;4.00;99.90;;;;;;10453436;28;20052;-83
2022/03/30 22:52:12;;;;;;;81.83;32.40;;;3.90;99.90;;;;;;10498208;28;20040;-83
2022/03/30 22:57:13;;;;;;;78.73;33.03;;;3.90;99.90;;;;;;10461605;28;20033;-83
2022/03/30 23:02:15;;;;;;;69.03;30.07;;;3.80;99.90;;;;;;10467824;28;20044;-83
2022/03/30 23:12:35;;;;;;;72.60;31.23;;;3.70;99.90;;;;;;10450189;28;20041;-86
2022/03/30 23:17:36;;;;;;;60.57;27.17;;;3.60;99.90;;;;;;10471453;28;20036;-84
2022/03/30 23:22:37;;;;;;;59.90;26.17;;;3.50;99.90;;;;;;10479889;28;20032;-84
2022/03/30 23:27:37;;;;;;;47.03;21.77;;;3.40;99.90;;;;;;10450627;28;20057;-83
2022/03/30 23:32:38;;;;;;;54.40;25.00;;;3.30;99.90;;;;;;10451326;28;20041;-83
2022/03/30 23:37:59;;;;;;;55.20;24.60;;;3.20;99.90;;;;;;10453895;28;20029;-85
2022/03/30 23:43:00;;;;;;;43.83;23.20;;;3.20;99.90;;;;;;10481771;28;20036;-84
2022/03/30 23:48:01;;;;;;;40.43;20.13;;;3.10;99.90;;;;;;10472721;28;20033;-84
2022/03/30 23:53:03;;;;;;;40.03;20.03;;;2.90;99.90;;;;;;10479629;28;20037;-85
2022/03/30 23:58:06;;;;;;;45.40;21.60;;;2.90;99.90;;;;;;10483594;28;20505;-83
